KCWA/CWA METAR and TAF weather

Enter ICAO airport designator
Station Type Date Time Source
KCWA METAR 2019/06/26 17:47 UTC NOAA

KCWA 261747Z 28009G14KT 10SM SCT060 BKN150 26/11 A3006


Station Type Date Time Source
KCWA Decoded METAR 2019/06/26 17:47 UTC NOAA

Mosinee / Central Wisconsin, WI, United States (KCWA) 44-47N 089-40W
Jun 26, 2019 - 01:47 PM EDT / 2019.06.26 1747 UTC
Wind: from the W (280 degrees) at 10 MPH (9 KT) gusting to 16 MPH (14 KT):0
Visibility: 10 mile(s):0
Sky conditions: mostly cloudy
Temperature: 78 F (26 C)
Dew Point: 51 F (11 C)
Relative Humidity: 39%
Pressure (altimeter): 30.06 in. Hg (1017 hPa)
ob: KCWA 261747Z 28009G14KT 10SM SCT060 BKN150 26/11 A3006
cycle: 18

Station Type Date Time Source
KCWA TAF 2019/06/26 18:36 UTC NOAA

TAF KCWA 261735Z 2618/2718 28010G17KT P6SM SCT045 BKN150
FM270000 24005KT P6SM SCT090
FM270800 VRB03KT P6SM BKN200
FM271600 20005KT P6SM BKN090

Example: see airport list